createdAt,value
2023-01-10T00:02:26.092Z,78.72
2023-01-10T00:04:52.969Z,77.93
2023-01-10T00:07:19.644Z,77.77
2023-01-10T00:09:46.342Z,78.18
2023-01-10T00:12:31.196Z,77.62
2023-01-10T00:14:57.916Z,77.96
2023-01-10T00:17:24.701Z,77.67
2023-01-10T00:19:51.298Z,77.53
2023-01-10T00:22:20.508Z,77.62
2023-01-10T00:24:47.134Z,77.53
2023-01-10T00:27:17.006Z,77.95
2023-01-10T00:29:43.669Z,77.73
2023-01-10T00:32:10.430Z,77.79
2023-01-10T00:34:37.053Z,77.87
2023-01-10T00:37:03.789Z,77.58
2023-01-10T00:39:31.335Z,77.83
2023-01-10T00:42:16.755Z,77.75
2023-01-10T00:44:46.716Z,77.63
2023-01-10T00:47:13.635Z,78.06
2023-01-10T00:49:40.923Z,77.75
2023-01-10T00:52:07.876Z,77.21
2023-01-10T00:54:34.718Z,76.72
2023-01-10T00:57:01.370Z,76.97
2023-01-10T00:59:29.462Z,77.32
2023-01-10T01:01:56.134Z,77.94
2023-01-10T01:04:23.034Z,76.89
2023-01-10T01:06:50.845Z,77.27
2023-01-10T01:09:17.745Z,77.33
2023-01-10T01:11:44.394Z,76.59
2023-01-10T01:14:11.160Z,76.01
2023-01-10T01:16:37.881Z,75.54
2023-01-10T01:19:04.537Z,75.37
2023-01-10T01:21:31.094Z,74.26
2023-01-10T01:23:57.870Z,74.65
2023-01-10T01:26:25.400Z,74.47
2023-01-10T01:28:52.502Z,74.43
2023-01-10T01:31:19.416Z,75.00
2023-01-10T01:33:46.447Z,74.80
2023-01-10T01:36:13.656Z,74.82
2023-01-10T01:38:41.779Z,74.89
2023-01-10T01:41:28.864Z,74.79
2023-01-10T01:44:02.921Z,75.10
2023-01-10T01:46:32.767Z,75.08
2023-01-10T01:48:59.624Z,75.53
2023-01-10T01:51:29.849Z,75.17
2023-01-10T01:54:01.465Z,75.34
2023-01-10T01:56:34.698Z,76.17
2023-01-10T01:59:09.793Z,76.63
2023-01-10T02:01:38.820Z,76.18
2023-01-10T02:04:58.128Z,76.15
2023-01-10T02:07:28.236Z,76.51
2023-01-10T02:10:01.325Z,75.80
2023-01-10T02:12:31.036Z,76.53
2023-01-10T02:14:59.206Z,76.54
2023-01-10T02:17:26.004Z,76.30
2023-01-10T02:19:56.202Z,76.37
2023-01-10T02:22:47.736Z,75.49
2023-01-10T02:25:29.727Z,74.69
2023-01-10T02:28:20.286Z,74.75
2023-01-10T02:31:02.130Z,73.95
2023-01-10T02:33:44.613Z,74.22
2023-01-10T02:36:40.897Z,73.65
2023-01-10T02:39:20.096Z,73.58
2023-01-10T02:41:56.671Z,73.54
2023-01-10T02:44:44.418Z,73.56
2023-01-10T02:47:13.893Z,73.19
2023-01-10T02:49:45.181Z,72.88
2023-01-10T02:52:17.473Z,72.59
2023-01-10T02:54:44.875Z,72.76
2023-01-10T02:57:39.946Z,72.86
2023-01-10T03:00:09.750Z,73.47
2023-01-10T03:03:05.256Z,73.02
2023-01-10T03:05:40.162Z,72.76
2023-01-10T03:08:31.642Z,73.31
2023-01-10T03:11:01.722Z,72.82
2023-01-10T03:13:46.620Z,72.67
2023-01-10T03:16:24.787Z,73.08
2023-01-10T03:18:56.556Z,73.03
2023-01-10T03:21:24.493Z,73.53
2023-01-10T03:23:54.538Z,73.66
2023-01-10T03:26:28.961Z,73.74
2023-01-10T03:29:06.425Z,73.22
2023-01-10T03:31:42.033Z,73.31
2023-01-10T03:34:09.297Z,73.26
2023-01-10T03:36:49.221Z,73.81
2023-01-10T03:39:23.597Z,73.83
2023-01-10T03:42:01.507Z,74.05
2023-01-10T03:44:43.987Z,74.47
2023-01-10T03:47:29.880Z,75.89
2023-01-10T03:50:23.298Z,76.21
2023-01-10T03:52:49.977Z,76.33
2023-01-10T03:55:22.749Z,76.35
2023-01-10T03:57:49.441Z,76.42
2023-01-10T04:00:16.983Z,76.50
2023-01-10T04:02:44.430Z,76.16
2023-01-10T04:05:12.203Z,76.39
2023-01-10T04:07:39.463Z,76.10
2023-01-10T04:10:07.416Z,76.66
2023-01-10T04:12:34.031Z,76.25
2023-01-10T04:15:01.533Z,75.98
2023-01-10T04:17:30.216Z,76.22
2023-01-10T04:19:57.027Z,76.15
2023-01-10T04:22:23.779Z,76.24
2023-01-10T04:24:51.876Z,76.17
2023-01-10T04:27:18.838Z,76.22
2023-01-10T04:29:45.532Z,76.12
2023-01-10T04:32:12.528Z,76.48
2023-01-10T04:34:39.371Z,76.48
2023-01-10T04:37:06.091Z,76.65
2023-01-10T04:39:32.750Z,76.81
2023-01-10T04:41:59.422Z,76.44
2023-01-10T04:44:26.065Z,77.09
2023-01-10T04:46:53.935Z,76.86
2023-01-10T04:49:20.581Z,76.65
2023-01-10T04:51:47.270Z,76.79
2023-01-10T04:54:14.066Z,76.76
2023-01-10T04:56:40.863Z,77.05
2023-01-10T04:59:09.960Z,77.15
2023-01-10T05:01:38.925Z,76.88
2023-01-10T05:04:06.387Z,76.89
2023-01-10T05:06:33.371Z,76.86
2023-01-10T05:09:00.077Z,77.14
2023-01-10T05:11:26.735Z,76.95
2023-01-10T05:13:53.375Z,76.79
2023-01-10T05:16:20.109Z,77.08
2023-01-10T05:18:46.746Z,77.47
2023-01-10T05:21:13.998Z,77.50
2023-01-10T05:23:40.761Z,77.27
2023-01-10T05:26:08.769Z,77.75
2023-01-10T05:28:35.582Z,76.86
2023-01-10T05:31:02.361Z,77.03
2023-01-10T05:33:29.069Z,76.50
2023-01-10T05:35:55.737Z,76.69
2023-01-10T05:38:22.360Z,76.19
2023-01-10T05:40:49.011Z,75.84
2023-01-10T05:43:15.610Z,75.40
2023-01-10T05:45:42.684Z,74.84
2023-01-10T05:48:09.493Z,74.64
2023-01-10T05:50:36.204Z,74.86
2023-01-10T05:53:05.874Z,74.56
2023-01-10T05:55:33.461Z,74.19
2023-01-10T05:58:00.476Z,73.67
2023-01-10T06:00:27.197Z,74.06
2023-01-10T06:02:57.663Z,73.60
2023-01-10T06:05:24.841Z,73.33
2023-01-10T06:07:51.975Z,73.10
2023-01-10T06:10:18.631Z,72.84
2023-01-10T06:12:45.377Z,72.41
2023-01-10T06:15:12.108Z,72.64
2023-01-10T06:17:38.823Z,72.78
2023-01-10T06:20:06.277Z,72.44
2023-01-10T06:22:32.971Z,72.92
2023-01-10T06:25:02.265Z,71.97
2023-01-10T06:27:29.516Z,72.37
2023-01-10T06:29:56.740Z,72.23
2023-01-10T06:32:23.397Z,72.83
2023-01-10T06:34:50.039Z,72.55
2023-01-10T06:37:18.235Z,72.29
2023-01-10T06:39:46.696Z,72.33
2023-01-10T06:42:13.374Z,73.34
2023-01-10T06:44:39.997Z,72.82
2023-01-10T06:47:07.137Z,72.51
2023-01-10T06:49:33.718Z,72.69
2023-01-10T06:52:00.361Z,72.54
2023-01-10T06:54:27.005Z,72.70
2023-01-10T06:56:53.642Z,72.48
2023-01-10T06:59:20.306Z,73.22
2023-01-10T07:01:47.058Z,72.23
2023-01-10T07:04:13.915Z,71.89
2023-01-10T07:06:41.565Z,71.94
2023-01-10T07:09:08.350Z,71.83
2023-01-10T07:11:35.494Z,71.41
2023-01-10T07:14:02.448Z,71.65
2023-01-10T07:16:29.204Z,71.56
2023-01-10T07:18:55.920Z,72.14
2023-01-10T07:21:22.502Z,72.47
2023-01-10T07:23:50.449Z,72.43
2023-01-10T07:26:19.112Z,73.30
2023-01-10T07:28:50.976Z,73.37
2023-01-10T07:31:20.307Z,73.80
2023-01-10T07:33:47.167Z,74.05
2023-01-10T07:36:14.153Z,74.37
2023-01-10T07:38:40.979Z,74.94
2023-01-10T07:41:07.714Z,74.97
2023-01-10T07:43:34.589Z,75.63
2023-01-10T07:46:02.588Z,75.59
2023-01-10T07:48:30.271Z,75.25
2023-01-10T07:50:59.028Z,74.92
2023-01-10T07:53:27.282Z,74.98
2023-01-10T07:55:54.392Z,74.21
2023-01-10T07:58:21.068Z,74.75
2023-01-10T08:00:50.293Z,73.99
2023-01-10T08:03:17.728Z,73.00
2023-01-10T08:05:44.849Z,73.09
2023-01-10T08:08:12.299Z,72.25
2023-01-10T08:10:40.325Z,71.77
2023-01-10T08:13:18.403Z,72.55
2023-01-10T08:15:47.100Z,72.87
2023-01-10T08:18:13.851Z,71.85
2023-01-10T08:20:40.924Z,71.39
2023-01-10T08:23:07.615Z,70.74
2023-01-10T08:25:34.317Z,70.92
2023-01-10T08:28:00.877Z,73.33
2023-01-10T08:30:27.773Z,73.73
2023-01-10T08:32:54.367Z,73.87
2023-01-10T08:35:21.010Z,73.63
2023-01-10T08:37:47.763Z,74.42
2023-01-10T08:40:14.917Z,74.67
2023-01-10T08:42:41.539Z,74.52
2023-01-10T08:45:08.818Z,74.76
2023-01-10T08:47:35.432Z,75.15
2023-01-10T08:50:02.738Z,75.27
2023-01-10T08:52:31.099Z,75.67
2023-01-10T08:54:57.816Z,75.71
2023-01-10T08:57:24.428Z,76.18
2023-01-10T08:59:51.037Z,75.77
2023-01-10T09:02:17.828Z,75.34
2023-01-10T09:04:44.496Z,75.69
2023-01-10T09:07:11.172Z,75.14
2023-01-10T09:09:38.045Z,74.96
2023-01-10T09:12:24.800Z,74.75
2023-01-10T09:14:51.833Z,74.66
2023-01-10T09:17:18.636Z,74.48
2023-01-10T09:19:46.076Z,74.20
2023-01-10T09:22:12.952Z,74.14
2023-01-10T09:24:39.655Z,73.90
2023-01-10T09:27:06.302Z,74.54
2023-01-10T09:29:32.916Z,74.78
2023-01-10T09:31:59.623Z,75.19
2023-01-10T09:34:26.433Z,75.65
2023-01-10T09:36:54.378Z,74.74
2023-01-10T09:39:21.500Z,73.94
2023-01-10T09:42:09.591Z,74.47
2023-01-10T09:44:49.295Z,73.92
2023-01-10T09:47:22.633Z,74.11
2023-01-10T09:50:20.345Z,74.18
2023-01-10T09:53:21.937Z,73.94
2023-01-10T09:55:53.778Z,74.39
2023-01-10T09:58:27.654Z,73.92
2023-01-10T10:00:58.491Z,74.62
2023-01-10T10:03:42.253Z,74.71
2023-01-10T10:06:14.001Z,75.29
2023-01-10T10:08:43.236Z,74.48
2023-01-10T10:11:28.140Z,74.01
2023-01-10T10:14:15.351Z,74.24
2023-01-10T10:17:17.491Z,73.66
2023-01-10T10:19:52.438Z,74.60
2023-01-10T10:22:43.803Z,74.36
2023-01-10T10:25:13.036Z,74.17
2023-01-10T10:27:48.476Z,73.17
2023-01-10T10:30:29.557Z,73.43
2023-01-10T10:33:11.336Z,73.58
2023-01-10T10:35:45.137Z,72.62
2023-01-10T10:38:21.622Z,71.58
2023-01-10T10:40:50.033Z,72.00
2023-01-10T10:43:24.249Z,72.23
2023-01-10T10:45:56.144Z,72.27
2023-01-10T10:48:38.874Z,72.54
2023-01-10T10:51:15.947Z,72.10
2023-01-10T10:53:42.866Z,71.94
2023-01-10T10:56:15.701Z,72.37
2023-01-10T10:58:45.941Z,72.49
2023-01-10T11:01:16.586Z,71.68
2023-01-10T11:03:48.368Z,72.99
2023-01-10T11:06:16.936Z,72.09
2023-01-10T11:08:46.779Z,72.62
2023-01-10T11:11:20.921Z,72.21
2023-01-10T11:13:59.666Z,72.62
2023-01-10T11:16:31.210Z,71.70
2023-01-10T11:19:21.202Z,70.93
2023-01-10T11:21:53.463Z,70.45
2023-01-10T11:24:32.854Z,70.91
2023-01-10T11:27:04.380Z,71.34
2023-01-10T11:29:43.056Z,70.74
2023-01-10T11:32:15.298Z,70.93
2023-01-10T11:34:49.034Z,70.26
2023-01-10T11:37:27.119Z,69.93
2023-01-10T11:40:23.918Z,69.66
2023-01-10T11:42:54.578Z,68.88
2023-01-10T11:45:21.260Z,68.72
2023-01-10T11:47:57.210Z,68.66
2023-01-10T11:50:27.871Z,69.47
2023-01-10T11:52:55.873Z,70.08
2023-01-10T11:55:29.798Z,69.55
2023-01-10T11:58:02.737Z,69.79
2023-01-10T12:00:49.026Z,69.12
2023-01-10T12:03:38.323Z,69.07
2023-01-10T12:06:14.510Z,69.30
2023-01-10T12:08:45.029Z,68.75
2023-01-10T12:11:17.911Z,67.78
2023-01-10T12:13:50.475Z,68.34
2023-01-10T12:16:26.137Z,68.29
2023-01-10T12:18:55.839Z,67.37
2023-01-10T12:21:30.515Z,67.69
2023-01-10T12:24:01.993Z,67.01
2023-01-10T12:26:31.415Z,66.60
2023-01-10T12:29:06.137Z,65.66
2023-01-10T12:31:35.172Z,66.52
2023-01-10T12:34:27.657Z,67.24
2023-01-10T12:37:17.391Z,68.26
2023-01-10T12:39:49.263Z,67.97
2023-01-10T12:42:46.679Z,68.50
2023-01-10T12:45:23.100Z,67.90
2023-01-10T12:47:59.171Z,68.65
2023-01-10T12:50:32.456Z,68.16
2023-01-10T12:53:19.597Z,67.54
2023-01-10T12:55:46.933Z,68.43
2023-01-10T12:58:28.738Z,68.50
2023-01-10T13:00:59.997Z,68.09
2023-01-10T13:03:30.443Z,68.22
2023-01-10T13:05:58.930Z,68.81
2023-01-10T13:08:29.082Z,67.93
2023-01-10T13:10:58.003Z,67.30
2023-01-10T13:13:34.150Z,68.17
2023-01-10T13:16:21.935Z,67.61
2023-01-10T13:19:01.882Z,67.39
2023-01-10T13:21:30.030Z,67.19
2023-01-10T13:24:03.245Z,66.58
2023-01-10T13:27:05.462Z,66.46
2023-01-10T13:29:41.873Z,66.10
2023-01-10T13:32:30.761Z,66.30
2023-01-10T13:35:13.637Z,65.92
2023-01-10T13:37:43.157Z,66.00
2023-01-10T13:40:21.965Z,65.35
2023-01-10T13:43:37.301Z,64.84
2023-01-10T13:46:19.150Z,64.68
2023-01-10T13:48:48.855Z,65.17
2023-01-10T13:51:20.814Z,64.57
2023-01-10T13:53:53.434Z,65.91
2023-01-10T13:56:40.897Z,65.21
2023-01-10T13:59:52.225Z,65.64
2023-01-10T14:02:31.922Z,65.34
2023-01-10T14:05:07.635Z,69.69
2023-01-10T14:07:47.298Z,66.54
2023-01-10T14:10:30.104Z,66.40
2023-01-10T14:13:09.285Z,65.34
2023-01-10T14:15:41.814Z,65.73
2023-01-10T14:18:21.388Z,65.68
2023-01-10T14:21:08.046Z,65.44
2023-01-10T14:23:40.897Z,65.39
2023-01-10T14:26:17.772Z,65.51
2023-01-10T14:28:45.108Z,65.19
2023-01-10T14:31:21.297Z,66.46
2023-01-10T14:33:48.892Z,64.17
2023-01-10T14:36:19.890Z,64.47
2023-01-10T14:38:49.684Z,64.25
2023-01-10T14:41:27.514Z,63.72
2023-01-10T14:44:00.851Z,63.49
2023-01-10T14:46:55.369Z,64.81
2023-01-10T14:49:28.403Z,63.60
2023-01-10T14:52:11.092Z,64.42
2023-01-10T14:54:37.831Z,64.81
2023-01-10T14:57:04.636Z,64.82
2023-01-10T14:59:34.317Z,65.60
2023-01-10T15:02:04.478Z,65.53
2023-01-10T15:04:33.999Z,66.12
2023-01-10T15:07:04.460Z,65.70
2023-01-10T15:09:32.152Z,66.23
2023-01-10T15:12:01.971Z,66.37
2023-01-10T15:14:29.999Z,66.27
2023-01-10T15:17:02.176Z,67.32
2023-01-10T15:19:35.187Z,67.51
2023-01-10T15:22:04.023Z,67.01
2023-01-10T15:24:37.896Z,67.14
2023-01-10T15:27:09.188Z,67.93
2023-01-10T15:29:36.963Z,67.63
2023-01-10T15:32:10.551Z,67.71
2023-01-10T15:34:39.338Z,67.32
2023-01-10T15:37:08.286Z,66.73
2023-01-10T15:39:39.362Z,67.14
2023-01-10T15:42:12.131Z,67.89
2023-01-10T15:44:40.164Z,66.63
2023-01-10T15:47:49.671Z,65.72
2023-01-10T15:50:22.516Z,65.98
2023-01-10T15:53:11.111Z,66.75
2023-01-10T15:55:50.765Z,66.59
2023-01-10T15:58:35.829Z,66.07
2023-01-10T16:01:04.485Z,64.94
2023-01-10T16:03:37.240Z,64.34
2023-01-10T16:06:09.596Z,64.17
2023-01-10T16:08:38.566Z,63.65
2023-01-10T16:11:08.764Z,64.38
2023-01-10T16:13:37.414Z,64.35
2023-01-10T16:16:14.326Z,64.32
2023-01-10T16:18:40.975Z,64.76
2023-01-10T16:21:11.106Z,64.25
2023-01-10T16:23:38.239Z,63.40
2023-01-10T16:26:09.082Z,62.41
2023-01-10T16:28:38.987Z,62.53
2023-01-10T16:31:07.085Z,63.18
2023-01-10T16:33:34.183Z,62.97
2023-01-10T16:36:00.917Z,63.67
2023-01-10T16:38:28.680Z,64.01
2023-01-10T16:41:35.906Z,64.23
2023-01-10T16:44:03.041Z,63.96
2023-01-10T16:46:30.182Z,63.07
2023-01-10T16:48:57.608Z,63.04
2023-01-10T16:51:27.676Z,62.86
2023-01-10T16:53:54.828Z,63.04
2023-01-10T16:56:27.800Z,62.89
2023-01-10T16:58:55.817Z,62.30
2023-01-10T17:01:30.108Z,63.36
2023-01-10T17:04:01.511Z,62.72
2023-01-10T17:06:28.745Z,62.68
2023-01-10T17:08:55.509Z,63.21
2023-01-10T17:11:30.327Z,62.59
2023-01-10T17:13:58.195Z,63.11
2023-01-10T17:16:24.894Z,63.47
2023-01-10T17:18:56.344Z,63.81
2023-01-10T17:21:24.753Z,62.85
2023-01-10T17:23:51.605Z,63.22
2023-01-10T17:26:19.597Z,63.56
2023-01-10T17:28:48.346Z,63.85
2023-01-10T17:31:17.003Z,64.23
2023-01-10T17:33:43.820Z,63.49
2023-01-10T17:36:11.803Z,63.37
2023-01-10T17:38:39.014Z,63.59
2023-01-10T17:41:07.314Z,63.22
2023-01-10T17:43:34.566Z,63.89
2023-01-10T17:46:05.890Z,63.83
2023-01-10T17:48:34.687Z,64.08
2023-01-10T17:51:03.550Z,63.20
2023-01-10T17:53:31.200Z,63.48
2023-01-10T17:55:59.985Z,63.25
2023-01-10T17:58:28.197Z,64.37
2023-01-10T18:00:55.459Z,63.28
2023-01-10T18:03:22.767Z,61.79
2023-01-10T18:06:01.768Z,61.77
2023-01-10T18:08:28.628Z,61.47
2023-01-10T18:11:00.135Z,62.06
2023-01-10T18:13:31.156Z,62.93
2023-01-10T18:15:59.522Z,61.74
2023-01-10T18:18:27.950Z,61.25
2023-01-10T18:20:58.542Z,61.86
2023-01-10T18:23:32.436Z,62.27
2023-01-10T18:26:04.916Z,62.37
2023-01-10T18:28:41.718Z,62.38
2023-01-10T18:31:16.142Z,60.66
2023-01-10T18:33:43.153Z,61.07
2023-01-10T18:36:14.871Z,60.98
2023-01-10T18:38:42.032Z,61.99
2023-01-10T18:41:09.195Z,61.06
2023-01-10T18:43:41.428Z,60.95
2023-01-10T18:46:14.819Z,60.01
2023-01-10T18:48:41.636Z,60.24
2023-01-10T18:51:10.554Z,60.50
2023-01-10T18:53:37.516Z,60.81
2023-01-10T18:56:05.474Z,62.06
2023-01-10T18:58:34.930Z,62.18
2023-01-10T19:01:10.616Z,61.95
2023-01-10T19:03:38.189Z,62.17
2023-01-10T19:06:06.990Z,61.20
2023-01-10T19:08:33.758Z,61.71
2023-01-10T19:11:12.944Z,62.93
2023-01-10T19:13:41.394Z,62.02
2023-01-10T19:16:13.507Z,62.01
2023-01-10T19:18:40.858Z,62.19
2023-01-10T19:21:13.303Z,63.13
2023-01-10T19:23:40.271Z,63.75
2023-01-10T19:26:07.314Z,63.83
2023-01-10T19:28:33.932Z,63.70
2023-01-10T19:31:04.503Z,63.58
2023-01-10T19:33:32.961Z,64.10
2023-01-10T19:35:59.958Z,64.10
2023-01-10T19:38:26.783Z,63.99
2023-01-10T19:40:55.737Z,66.38
2023-01-10T19:43:24.168Z,66.31
2023-01-10T19:45:51.120Z,66.07
2023-01-10T19:48:17.955Z,66.17
2023-01-10T19:50:44.753Z,66.41
2023-01-10T19:53:11.459Z,66.97
2023-01-10T19:55:38.736Z,66.72
2023-01-10T19:58:05.699Z,66.82
2023-01-10T20:00:32.949Z,67.19
2023-01-10T20:03:00.260Z,66.72
2023-01-10T20:05:27.245Z,65.50
2023-01-10T20:07:54.128Z,66.51
2023-01-10T20:10:20.981Z,66.38
2023-01-10T20:12:47.823Z,66.32
2023-01-10T20:15:14.499Z,66.74
2023-01-10T20:17:43.115Z,67.23
2023-01-10T20:20:10.563Z,67.07
2023-01-10T20:22:37.397Z,67.43
2023-01-10T20:25:04.496Z,67.38
2023-01-10T20:27:31.252Z,67.15
2023-01-10T20:29:57.917Z,66.13
2023-01-10T20:32:24.945Z,67.73
2023-01-10T20:34:51.959Z,65.63
2023-01-10T20:37:19.075Z,66.10
2023-01-10T20:39:46.212Z,66.92
2023-01-10T20:42:13.024Z,66.45
2023-01-10T20:44:40.160Z,66.20
2023-01-10T20:47:07.010Z,66.35
2023-01-10T20:49:33.792Z,66.68
2023-01-10T20:52:00.412Z,65.97
2023-01-10T20:54:27.031Z,65.96
2023-01-10T20:56:53.772Z,66.12
2023-01-10T20:59:20.774Z,65.62
2023-01-10T21:01:47.547Z,66.29
2023-01-10T21:04:14.325Z,66.58
2023-01-10T21:06:41.214Z,67.06
2023-01-10T21:09:07.990Z,67.12
2023-01-10T21:11:44.415Z,65.41
2023-01-10T21:14:21.872Z,64.97
2023-01-10T21:16:50.344Z,65.03
2023-01-10T21:19:25.852Z,66.33
2023-01-10T21:21:57.097Z,66.32
2023-01-10T21:24:25.255Z,67.09
2023-01-10T21:26:51.907Z,67.36
2023-01-10T21:29:18.757Z,67.92
2023-01-10T21:31:45.479Z,68.44
2023-01-10T21:34:12.172Z,68.44
2023-01-10T21:36:38.915Z,69.10
2023-01-10T21:39:05.675Z,68.83
2023-01-10T21:41:50.716Z,69.33
2023-01-10T21:44:20.227Z,68.80
2023-01-10T21:46:49.074Z,69.05
2023-01-10T21:49:15.787Z,69.40
2023-01-10T21:51:43.542Z,70.47
2023-01-10T21:54:10.237Z,70.85
2023-01-10T21:56:36.959Z,70.83
2023-01-10T21:59:03.770Z,71.48
2023-01-10T22:01:30.462Z,71.43
2023-01-10T22:03:57.169Z,71.91
2023-01-10T22:06:24.028Z,72.72
2023-01-10T22:08:52.817Z,73.21
2023-01-10T22:11:19.708Z,73.57
2023-01-10T22:13:47.261Z,73.58
2023-01-10T22:16:14.041Z,73.63
2023-01-10T22:18:40.715Z,73.49
2023-01-10T22:21:07.375Z,73.35
2023-01-10T22:23:34.656Z,74.04
2023-01-10T22:26:04.025Z,73.34
2023-01-10T22:28:30.858Z,73.69
2023-01-10T22:31:02.493Z,73.72
2023-01-10T22:33:31.324Z,73.60
2023-01-10T22:36:05.676Z,73.86
2023-01-10T22:38:32.756Z,73.34
2023-01-10T22:41:13.773Z,73.31
2023-01-10T22:43:40.776Z,73.19
2023-01-10T22:46:08.744Z,71.85
2023-01-10T22:48:36.202Z,72.55
2023-01-10T22:51:05.227Z,71.57
2023-01-10T22:53:32.982Z,71.29
2023-01-10T22:56:04.813Z,71.86
2023-01-10T22:58:31.567Z,71.79
2023-01-10T23:00:58.401Z,71.47
2023-01-10T23:03:25.183Z,70.91
2023-01-10T23:05:56.450Z,70.81
2023-01-10T23:08:24.065Z,70.55
2023-01-10T23:10:50.820Z,70.76
2023-01-10T23:13:17.456Z,71.09
2023-01-10T23:15:44.045Z,71.54
2023-01-10T23:18:10.712Z,71.21
2023-01-10T23:20:37.606Z,72.13
2023-01-10T23:23:04.298Z,71.98
2023-01-10T23:25:31.113Z,72.72
2023-01-10T23:27:57.747Z,72.35
2023-01-10T23:30:26.613Z,72.49
2023-01-10T23:32:53.623Z,72.81
2023-01-10T23:35:20.304Z,72.57
2023-01-10T23:37:47.006Z,73.33
2023-01-10T23:40:13.831Z,72.83
2023-01-10T23:42:40.575Z,72.97
2023-01-10T23:45:07.887Z,73.08
2023-01-10T23:47:34.562Z,73.25
2023-01-10T23:50:01.163Z,73.11
2023-01-10T23:52:27.975Z,74.01
2023-01-10T23:54:54.625Z,73.29
2023-01-10T23:57:21.396Z,74.04
2023-01-10T23:59:48.009Z,72.38
